Senyomaru — JI3557 — position and weather

sailwx.info

Track history (hours):
 
Tides and Currents Weather Stations Pressure Air Temp Water Temp Dewpoint Dewpoint Depression Visibility Wind Speed Wind Dir Waves Ship Positions

Senyomaru

Last reported at 2016-Jun-13 07:33 UTC. Time now 2016-Jun-26 11:58 UTC.
Position N 34°36' E 134°53'.
Warning: this ship's position is 13 days out of date.

Length 69 m; draft 4 m.

Type: Tanker. MMSI: 431300188.

Date/timePositionNaut miles runAvg speedWind from/ knotsBaromVisibWave heightAir tempDewpointWater temp
2016-Jun-13 07:33N 34°36' E 134°53'1212.3
2016-Jun-13 06:33N 34°36' E 135°08'1212.0
2016-Jun-13 05:33N 34°34' E 135°23'2 2.4
2016-Jun-13 04:32N 34°33' E 135°26'0 0.0
2016-Jun-13 03:33N 34°33' E 135°26'0 0.0
2016-Jun-13 02:33N 34°33' E 135°26'0 0.0
2016-Jun-13 01:33N 34°33' E 135°26'0 0.0
2016-Jun-13 00:33N 34°33' E 135°26'1 1.1
2016-Jun-12 23:33N 34°33' E 135°24'1 1.3
2016-Jun-12 22:33N 34°34' E 135°23'0 0.1
2016-Jun-12 21:33N 34°34' E 135°23'0 0.0
2016-Jun-12 20:33N 34°34' E 135°23'0 0.0
2016-Jun-12 19:25N 34°34' E 135°23'0 0.1
2016-Jun-12 18:32N 34°34' E 135°23'0 0.0
2016-Jun-12 17:33N 34°34' E 135°23'0 0.0
2016-Jun-12 16:33N 34°34' E 135°23'0 0.0
2016-Jun-12 15:32N 34°34' E 135°23'0 0.0
2016-Jun-12 14:08N 34°34' E 135°23'0 0.0
2016-Jun-12 13:31N 34°34' E 135°23'0 0.0
2016-Jun-12 12:32N 34°34' E 135°23'0 0.0
2016-Jun-12 11:20N 34°34' E 135°23'0 0.1
2016-Jun-12 10:33N 34°34' E 135°23'0 0.0
2016-Jun-12 09:30N 34°34' E 135°23'0 0.0
2016-Jun-12 08:18N 34°34' E 135°23'0 0.0
2016-Jun-12 07:32N 34°34' E 135°23'0 0.0
2016-Jun-12 06:33N 34°34' E 135°23'0 0.0
2016-Jun-12 04:28N 34°34' E 135°23'0 0.0
2016-Jun-12 03:32N 34°34' E 135°23'0 0.0
2016-Jun-12 02:33N 34°34' E 135°23'0 0.1
2016-Jun-12 01:30N 34°34' E 135°23'0 0.0
2016-Jun-12 00:33N 34°34' E 135°23'0 0.1
2016-Jun-11 23:31N 34°34' E 135°23'0 0.0
2016-Jun-11 21:24N 34°34' E 135°23'0 0.0
2016-Jun-11 20:09N 34°34' E 135°23'0 0.1
2016-Jun-11 19:21N 34°34' E 135°23'0 0.0
2016-Jun-11 18:55N 34°34' E 135°23'0 0.0
2016-Jun-11 18:30N 34°34' E 135°23'0 0.0
2016-Jun-11 17:32N 34°34' E 135°23'0 0.0
2016-Jun-11 16:30N 34°34' E 135°23'0 0.1
2016-Jun-11 15:33N 34°34' E 135°23'0 0.1
2016-Jun-11 14:33N 34°34' E 135°23'0 0.0
2016-Jun-11 13:33N 34°34' E 135°23'0 0.0
2016-Jun-11 12:33N 34°34' E 135°23'0 0.0
2016-Jun-11 11:32N 34°34' E 135°23'0 0.0
2016-Jun-11 10:33N 34°34' E 135°23'0 0.0
2016-Jun-11 09:31N 34°34' E 135°23'0 0.0
2016-Jun-11 08:31N 34°34' E 135°23'0 0.0
2016-Jun-11 07:31N 34°34' E 135°23'0 0.0
2016-Jun-11 06:31N 34°34' E 135°23'7 7.4
2016-Jun-11 05:33N 34°34' E 135°14'1211.8
2016-Jun-11 04:33N 34°37' E 135°01'  
Track history (hours):
 
Tides and Currents Weather Stations Pressure Air Temp Water Temp Dewpoint Dewpoint Depression Visibility Wind Speed Wind Dir Waves Ship Positions

Senyomaru

Last reported at 2016-Jun-13 07:33 UTC. Time now 2016-Jun-26 11:58 UTC.
Position N 34°36' E 134°53'.
Warning: this ship's position is 13 days out of date.

Length 69 m; draft 4 m.

Type: Tanker. MMSI: 431300188.

Date/timePositionNaut miles runAvg speedWind from/ knotsBaromVisibWave heightAir tempDewpointWater temp
2016-Jun-13 07:33N 34°36' E 134°53'1212.3
2016-Jun-13 06:33N 34°36' E 135°08'1212.0
2016-Jun-13 05:33N 34°34' E 135°23'2 2.4
2016-Jun-13 04:32N 34°33' E 135°26'0 0.0
2016-Jun-13 03:33N 34°33' E 135°26'0 0.0
2016-Jun-13 02:33N 34°33' E 135°26'0 0.0
2016-Jun-13 01:33N 34°33' E 135°26'0 0.0
2016-Jun-13 00:33N 34°33' E 135°26'1 1.1
2016-Jun-12 23:33N 34°33' E 135°24'1 1.3
2016-Jun-12 22:33N 34°34' E 135°23'0 0.1
2016-Jun-12 21:33N 34°34' E 135°23'0 0.0
2016-Jun-12 20:33N 34°34' E 135°23'0 0.0
2016-Jun-12 19:25N 34°34' E 135°23'0 0.1
2016-Jun-12 18:32N 34°34' E 135°23'0 0.0
2016-Jun-12 17:33N 34°34' E 135°23'0 0.0
2016-Jun-12 16:33N 34°34' E 135°23'0 0.0
2016-Jun-12 15:32N 34°34' E 135°23'0 0.0
2016-Jun-12 14:08N 34°34' E 135°23'0 0.0
2016-Jun-12 13:31N 34°34' E 135°23'0 0.0
2016-Jun-12 12:32N 34°34' E 135°23'0 0.0
2016-Jun-12 11:20N 34°34' E 135°23'0 0.1
2016-Jun-12 10:33N 34°34' E 135°23'0 0.0
2016-Jun-12 09:30N 34°34' E 135°23'0 0.0
2016-Jun-12 08:18N 34°34' E 135°23'0 0.0
2016-Jun-12 07:32N 34°34' E 135°23'0 0.0
2016-Jun-12 06:33N 34°34' E 135°23'0 0.0
2016-Jun-12 04:28N 34°34' E 135°23'0 0.0
2016-Jun-12 03:32N 34°34' E 135°23'0 0.0
2016-Jun-12 02:33N 34°34' E 135°23'0 0.1
2016-Jun-12 01:30N 34°34' E 135°23'0 0.0
2016-Jun-12 00:33N 34°34' E 135°23'0 0.1
2016-Jun-11 23:31N 34°34' E 135°23'0 0.0
2016-Jun-11 21:24N 34°34' E 135°23'0 0.0
2016-Jun-11 20:09N 34°34' E 135°23'0 0.1
2016-Jun-11 19:21N 34°34' E 135°23'0 0.0
2016-Jun-11 18:55N 34°34' E 135°23'0 0.0
2016-Jun-11 18:30N 34°34' E 135°23'0 0.0
2016-Jun-11 17:32N 34°34' E 135°23'0 0.0
2016-Jun-11 16:30N 34°34' E 135°23'0 0.1
2016-Jun-11 15:33N 34°34' E 135°23'0 0.1
2016-Jun-11 14:33N 34°34' E 135°23'0 0.0
2016-Jun-11 13:33N 34°34' E 135°23'0 0.0
2016-Jun-11 12:33N 34°34' E 135°23'0 0.0
2016-Jun-11 11:32N 34°34' E 135°23'0 0.0
2016-Jun-11 10:33N 34°34' E 135°23'0 0.0
2016-Jun-11 09:31N 34°34' E 135°23'0 0.0
2016-Jun-11 08:31N 34°34' E 135°23'0 0.0
2016-Jun-11 07:31N 34°34' E 135°23'0 0.0
2016-Jun-11 06:31N 34°34' E 135°23'7 7.4
2016-Jun-11 05:33N 34°34' E 135°14'1211.8
2016-Jun-11 04:33N 34°37' E 135°01'  

Dump ship's entire track history